Time;durP1;ratioP1;P1;durP2;ratioP2;P2;SDS_P1;SDS_P2;PMS_P1;PMS_P2;Temp;Humidity;BMP_temperature;BMP_pressure;BME280_temperature;BME280_humidity;BME280_pressure;Samples;Min_cycle;Max_cycle;Signal;HPM_P1;HPM_P2
2023/01/26 00:01:42;;;;;;;26.77;15.80;;;2.70;99.90;;;;;;6176241;28;20047;-85
2023/01/26 00:04:44;;;;;;;35.75;16.75;;;2.70;99.90;;;;;;6175225;28;20074;-80
2023/01/26 00:07:46;;;;;;;30.25;18.25;;;2.70;99.90;;;;;;6175419;28;20504;-84
2023/01/26 00:10:49;;;;;;;30.88;18.65;;;2.60;99.90;;;;;;6183922;28;20072;-83
2023/01/26 00:13:53;;;;;;;37.03;18.38;;;2.70;99.90;;;;;;6194720;28;20047;-84
2023/01/26 00:16:54;;;;;;;27.77;17.23;;;2.70;99.90;;;;;;6182055;28;20047;-83
2023/01/26 00:19:58;;;;;;;30.48;17.05;;;2.70;99.90;;;;;;6176067;28;20054;-83
2023/01/26 00:22:59;;;;;;;35.08;18.50;;;2.70;99.90;;;;;;6176316;28;20061;-83
2023/01/26 00:26:01;;;;;;;28.23;17.35;;;2.60;99.90;;;;;;6176984;28;20066;-83
2023/01/26 00:29:04;;;;;;;32.45;19.13;;;2.70;99.90;;;;;;6174702;28;20039;-82
2023/01/26 00:32:06;;;;;;;29.33;16.75;;;2.70;99.90;;;;;;6175201;28;20047;-82
2023/01/26 00:35:08;;;;;;;28.38;19.30;;;2.70;99.90;;;;;;6175814;28;20062;-82
2023/01/26 00:38:10;;;;;;;30.85;17.95;;;2.70;99.90;;;;;;6175720;28;20051;-83
2023/01/26 00:42:05;;;;;;;27.40;17.77;;;2.60;99.90;;;;;;6175526;28;20054;-82
2023/01/26 00:44:37;;;;;;;28.48;15.70;;;2.70;99.90;;;;;;6175043;28;20117;-83
2023/01/26 00:47:39;;;;;;;36.50;20.13;;;2.60;99.90;;;;;;6173964;28;20058;-83
2023/01/26 00:50:40;;;;;;;26.20;16.95;;;2.70;99.90;;;;;;6175532;28;20468;-82
2023/01/26 00:53:42;;;;;;;29.92;16.80;;;2.60;99.90;;;;;;6175501;28;20058;-82
2023/01/26 00:56:43;;;;;;;30.15;15.30;;;2.60;99.90;;;;;;6175108;28;20058;-81
2023/01/26 00:59:46;;;;;;;27.77;15.57;;;2.70;99.90;;;;;;6174477;28;20054;-82
2023/01/26 01:02:48;;;;;;;32.22;15.65;;;2.70;99.90;;;;;;6174736;28;20043;-82
2023/01/26 01:05:51;;;;;;;29.75;17.63;;;2.60;99.90;;;;;;6176281;28;20058;-82
2023/01/26 01:08:53;;;;;;;25.85;16.20;;;2.60;99.90;;;;;;6174446;28;20039;-81
2023/01/26 01:11:54;;;;;;;27.40;17.92;;;2.60;99.90;;;;;;6168188;28;20090;-82
2023/01/26 01:14:57;;;;;;;25.63;15.63;;;2.70;99.90;;;;;;6175229;28;20047;-82
2023/01/26 01:17:59;;;;;;;30.33;16.85;;;2.70;99.90;;;;;;6165082;28;20051;-82
2023/01/26 01:21:05;;;;;;;32.33;17.67;;;2.70;99.90;;;;;;6175097;28;20057;-83
2023/01/26 01:24:07;;;;;;;31.38;18.17;;;2.70;99.90;;;;;;6191688;28;20055;-83
2023/01/26 01:27:09;;;;;;;31.02;16.30;;;2.70;99.90;;;;;;6201951;28;20527;-82
2023/01/26 01:30:13;;;;;;;29.42;15.15;;;2.60;99.90;;;;;;6200259;28;20050;-83
2023/01/26 01:33:15;;;;;;;24.00;15.48;;;2.60;99.90;;;;;;6197951;28;20054;-84
2023/01/26 01:36:17;;;;;;;27.05;15.38;;;2.60;99.90;;;;;;6198196;28;20054;-82
2023/01/26 01:39:19;;;;;;;22.55;13.50;;;2.50;99.90;;;;;;6197871;28;20053;-83
2023/01/26 01:42:21;;;;;;;28.65;17.13;;;2.50;99.90;;;;;;6198984;28;20488;-83
2023/01/26 01:45:43;;;;;;;23.60;13.93;;;2.50;99.90;;;;;;6199054;28;20061;-82
2023/01/26 01:48:52;;;;;;;23.58;13.90;;;2.50;99.90;;;;;;6200616;28;20476;-83
2023/01/26 01:51:59;;;;;;;23.85;15.38;;;2.50;99.90;;;;;;6198589;28;20050;-83
2023/01/26 01:55:06;;;;;;;27.52;16.00;;;2.50;99.90;;;;;;6198337;28;20047;-83
2023/01/26 01:58:09;;;;;;;20.70;12.70;;;2.50;99.90;;;;;;6198404;28;20137;-82
2023/01/26 02:01:12;;;;;;;25.10;14.55;;;2.40;99.90;;;;;;6198746;28;20047;-81
2023/01/26 02:04:15;;;;;;;34.05;18.25;;;2.40;99.90;;;;;;6198092;28;20058;-82
2023/01/26 02:07:16;;;;;;;29.73;15.80;;;2.40;99.90;;;;;;6199614;28;20081;-83
2023/01/26 02:10:20;;;;;;;33.33;18.73;;;2.40;99.90;;;;;;6198933;28;20047;-82
2023/01/26 02:13:23;;;;;;;29.25;16.55;;;2.40;99.90;;;;;;6178426;28;20055;-82
2023/01/26 02:16:26;;;;;;;36.42;21.08;;;2.30;99.90;;;;;;6178115;28;20051;-81
2023/01/26 02:19:47;;;;;;;32.50;18.23;;;2.40;99.90;;;;;;6178055;28;20047;-81
2023/01/26 02:22:55;;;;;;;29.63;18.98;;;2.40;99.90;;;;;;6176927;28;20553;-82
2023/01/26 02:26:18;;;;;;;29.40;16.50;;;2.40;99.90;;;;;;6178906;28;20145;-81
2023/01/26 02:29:20;;;;;;;29.00;16.08;;;2.40;99.90;;;;;;6178617;28;20047;-83
2023/01/26 02:32:21;;;;;;;27.27;15.90;;;2.40;99.90;;;;;;6177976;28;20058;-82
2023/01/26 02:35:23;;;;;;;33.17;17.08;;;2.40;99.90;;;;;;6178179;28;20051;-81
2023/01/26 02:38:30;;;;;;;26.77;15.85;;;2.40;99.90;;;;;;6177241;28;20062;-82
2023/01/26 02:44:53;;;;;;;31.08;16.38;;;2.40;99.90;;;;;;6177985;28;20058;-83
2023/01/26 02:47:55;;;;;;;23.52;15.70;;;2.50;99.90;;;;;;6177148;28;20412;-82
2023/01/26 02:50:55;;;;;;;33.72;17.40;;;2.50;99.90;;;;;;6178615;28;20061;-81
2023/01/26 02:53:57;;;;;;;28.83;16.63;;;2.50;99.90;;;;;;6178460;28;20046;-82
2023/01/26 02:56:59;;;;;;;24.30;14.10;;;2.50;99.90;;;;;;6177534;28;20500;-81
2023/01/26 03:00:01;;;;;;;26.88;13.70;;;2.50;99.90;;;;;;6176362;28;20086;-82
2023/01/26 03:03:07;;;;;;;25.05;14.77;;;2.50;99.90;;;;;;6193513;28;20388;-82
2023/01/26 03:06:10;;;;;;;29.42;14.68;;;2.40;99.90;;;;;;6201763;28;20411;-83
2023/01/26 03:09:11;;;;;;;27.92;16.50;;;2.50;99.90;;;;;;6201161;28;20432;-82
2023/01/26 03:12:18;;;;;;;26.48;15.82;;;2.40;99.90;;;;;;6207529;28;20049;-81
2023/01/26 03:15:41;;;;;;;30.98;16.40;;;2.40;99.90;;;;;;6226783;28;20125;-81
2023/01/26 03:28:42;;;;;;;36.10;17.88;;;2.40;99.90;;;;;;6324919;27;20048;-81
2023/01/26 03:31:44;;;;;;;30.42;18.70;;;2.30;99.90;;;;;;6325360;28;20040;-81
2023/01/26 03:34:47;;;;;;;31.85;17.90;;;2.30;99.90;;;;;;6323798;28;20048;-81
2023/01/26 03:37:53;;;;;;;32.95;17.90;;;2.40;99.90;;;;;;6302128;28;20052;-81
2023/01/26 03:57:36;;;;;;;33.38;16.60;;;2.40;99.90;;;;;;6298575;28;20068;-80
2023/01/26 04:00:41;;;;;;;27.92;16.75;;;2.40;99.90;;;;;;6299021;28;20044;-81
2023/01/26 04:10:24;;;;;;;35.42;19.85;;;2.40;99.90;;;;;;6301946;28;20029;-81
2023/01/26 04:23:26;;;;;;;33.05;17.60;;;2.40;99.90;;;;;;6325297;28;20400;-80
2023/01/26 04:26:33;;;;;;;32.65;19.80;;;2.40;99.90;;;;;;6324755;28;20048;-80
2023/01/26 04:29:35;;;;;;;30.20;16.77;;;2.40;99.90;;;;;;6324653;28;20044;-81
2023/01/26 04:32:38;;;;;;;30.20;17.67;;;2.40;99.90;;;;;;6325442;28;20426;-80
2023/01/26 04:35:40;;;;;;;35.20;17.98;;;2.40;99.90;;;;;;6323699;28;20044;-81
2023/01/26 04:38:41;;;;;;;44.17;19.63;;;2.40;99.90;;;;;;6323230;28;20052;-80
2023/01/26 04:41:43;;;;;;;36.03;18.75;;;2.40;99.90;;;;;;6324784;28;20050;-80
2023/01/26 04:44:45;;;;;;;33.42;20.55;;;2.40;99.90;;;;;;6324001;28;20062;-81
2023/01/26 04:47:49;;;;;;;32.22;19.58;;;2.40;99.90;;;;;;6323178;28;20409;-80
2023/01/26 04:50:54;;;;;;;32.78;17.60;;;2.50;99.90;;;;;;6324468;28;20047;-81
2023/01/26 04:53:56;;;;;;;39.97;19.05;;;2.50;99.90;;;;;;6324293;28;20668;-80
2023/01/26 04:56:58;;;;;;;36.78;18.33;;;2.50;99.90;;;;;;6320520;28;20131;-81
2023/01/26 05:03:18;;;;;;;45.45;21.02;;;2.40;99.90;;;;;;6312266;28;20545;-80
2023/01/26 05:06:26;;;;;;;44.10;22.20;;;2.40;99.90;;;;;;6299128;28;20415;-80
2023/01/26 05:09:29;;;;;;;42.45;21.15;;;2.40;99.90;;;;;;6298056;28;20702;-81
2023/01/26 05:12:33;;;;;;;39.95;21.35;;;2.40;99.90;;;;;;6299100;28;20059;-80
2023/01/26 05:15:36;;;;;;;41.38;21.35;;;2.30;99.90;;;;;;6302035;28;20039;-80
2023/01/26 05:18:39;;;;;;;37.58;19.80;;;2.30;99.90;;;;;;6322755;28;20052;-81
2023/01/26 05:21:40;;;;;;;44.33;22.60;;;2.30;99.90;;;;;;6323822;28;20055;-80
2023/01/26 05:24:42;;;;;;;44.97;22.60;;;2.40;99.90;;;;;;6325218;28;20696;-81
2023/01/26 05:27:44;;;;;;;40.30;18.98;;;2.40;99.90;;;;;;6322710;28;20052;-81
2023/01/26 05:30:46;;;;;;;40.55;22.35;;;2.40;99.90;;;;;;6324819;28;20056;-80
2023/01/26 05:33:50;;;;;;;49.97;21.48;;;2.40;99.90;;;;;;6324625;28;20056;-81
2023/01/26 05:36:51;;;;;;;41.97;22.05;;;2.40;99.90;;;;;;6324165;28;20177;-80
2023/01/26 05:39:53;;;;;;;42.92;19.98;;;2.40;99.90;;;;;;6323866;28;20037;-81
2023/01/26 05:42:55;;;;;;;42.05;20.77;;;2.40;99.90;;;;;;6311980;28;20052;-81
2023/01/26 05:45:57;;;;;;;36.88;22.77;;;2.30;99.90;;;;;;6300259;28;20677;-80
2023/01/26 05:49:00;;;;;;;45.78;22.67;;;2.40;99.90;;;;;;6300925;28;20049;-80
2023/01/26 05:52:02;;;;;;;42.03;20.52;;;2.30;99.90;;;;;;6304174;28;20055;-81
2023/01/26 05:55:04;;;;;;;44.70;22.63;;;2.30;99.90;;;;;;6303848;28;20518;-81
2023/01/26 05:58:06;;;;;;;71.88;21.85;;;2.30;99.90;;;;;;6304811;28;20062;-80
2023/01/26 06:01:08;;;;;;;42.00;21.80;;;2.30;99.90;;;;;;6304593;28;20041;-81
2023/01/26 06:04:11;;;;;;;44.38;22.27;;;2.30;99.90;;;;;;6305508;28;20052;-81
2023/01/26 06:07:13;;;;;;;50.63;24.67;;;2.30;99.90;;;;;;6305644;28;20054;-78
2023/01/26 06:10:15;;;;;;;42.33;24.67;;;2.20;99.90;;;;;;6307225;28;20098;-80
2023/01/26 06:13:17;;;;;;;48.63;23.98;;;2.30;99.90;;;;;;6307297;28;20037;-81
2023/01/26 06:16:18;;;;;;;39.90;23.30;;;2.20;99.90;;;;;;6305414;28;20044;-81
2023/01/26 06:19:21;;;;;;;42.25;22.15;;;2.30;99.90;;;;;;6311316;28;20051;-79
2023/01/26 06:22:23;;;;;;;48.28;21.83;;;2.30;99.90;;;;;;6304594;28;20045;-80
2023/01/26 06:25:25;;;;;;;40.38;23.63;;;2.30;99.90;;;;;;6301161;28;20044;-81
2023/01/26 06:28:27;;;;;;;46.65;24.85;;;2.20;99.90;;;;;;6300305;28;20087;-81
2023/01/26 06:31:29;;;;;;;37.28;19.45;;;2.30;99.90;;;;;;6300379;28;20052;-80
2023/01/26 06:34:32;;;;;;;43.22;22.67;;;2.20;99.90;;;;;;6301019;28;20044;-80
2023/01/26 06:37:34;;;;;;;41.75;21.30;;;2.30;99.90;;;;;;6300566;28;20052;-79
2023/01/26 06:40:36;;;;;;;38.05;21.15;;;2.30;99.90;;;;;;6301785;28;20486;-80
2023/01/26 06:43:38;;;;;;;38.30;22.25;;;2.30;99.90;;;;;;6300583;28;20045;-80
2023/01/26 06:46:40;;;;;;;39.85;24.10;;;2.20;99.90;;;;;;6302373;28;20055;-80
2023/01/26 06:49:43;;;;;;;37.92;20.17;;;2.20;99.90;;;;;;6306900;28;20044;-81
2023/01/26 06:52:47;;;;;;;46.53;24.65;;;2.20;99.90;;;;;;6325405;28;20055;-79
2023/01/26 06:55:50;;;;;;;35.10;19.58;;;2.20;99.90;;;;;;6326228;28;20048;-79
2023/01/26 06:58:52;;;;;;;38.17;22.77;;;2.20;99.90;;;;;;6325461;28;20067;-80
2023/01/26 07:01:53;;;;;;;44.95;23.02;;;2.10;99.90;;;;;;6325252;28;20051;-79
2023/01/26 07:04:57;;;;;;;40.90;20.33;;;2.10;99.90;;;;;;6302502;28;20044;-79
2023/01/26 07:08:01;;;;;;;34.55;20.17;;;2.10;99.90;;;;;;6299929;28;20059;-80
2023/01/26 07:11:02;;;;;;;46.78;23.23;;;2.00;99.90;;;;;;6302894;28;20052;-80
2023/01/26 07:27:15;;;;;;;48.13;23.17;;;2.00;99.90;;;;;;5153497;23;20488;-80
2023/01/26 07:30:17;;;;;;;40.97;21.77;;;2.00;99.90;;;;;;6274926;28;20056;-80
2023/01/26 07:33:19;;;;;;;46.65;24.42;;;2.00;99.90;;;;;;6275420;28;20053;-80
2023/01/26 07:36:21;;;;;;;41.33;20.35;;;2.00;99.90;;;;;;6276667;28;20051;-81
2023/01/26 07:39:23;;;;;;;42.92;19.00;;;2.00;99.90;;;;;;6275360;28;20579;-80
2023/01/26 07:42:26;;;;;;;39.05;20.17;;;2.10;99.90;;;;;;6276512;28;20045;-80
2023/01/26 07:45:28;;;;;;;37.97;21.67;;;2.00;99.90;;;;;;6277769;28;20063;-80
2023/01/26 07:48:30;;;;;;;42.22;20.83;;;2.00;99.90;;;;;;6273201;28;20053;-81
2023/01/26 07:51:31;;;;;;;36.50;19.10;;;2.00;99.90;;;;;;6275153;28;20053;-80
2023/01/26 07:54:33;;;;;;;38.38;20.52;;;1.90;99.90;;;;;;6274232;28;20068;-80
2023/01/26 07:57:36;;;;;;;39.78;20.42;;;1.90;99.90;;;;;;6274422;28;20425;-80
2023/01/26 08:00:38;;;;;;;40.72;19.55;;;1.90;99.90;;;;;;6274645;28;20041;-80
2023/01/26 08:03:41;;;;;;;45.10;23.15;;;1.90;99.90;;;;;;6273319;28;20115;-80
2023/01/26 08:06:43;;;;;;;44.85;21.55;;;1.80;99.90;;;;;;6274163;28;20049;-80
2023/01/26 08:09:45;;;;;;;46.55;23.13;;;1.90;99.90;;;;;;6274662;28;20059;-80
2023/01/26 08:12:51;;;;;;;44.08;20.52;;;1.90;99.90;;;;;;6272480;28;20136;-80
2023/01/26 08:15:53;;;;;;;45.53;23.52;;;1.90;99.90;;;;;;6272858;28;20045;-80
2023/01/26 08:18:54;;;;;;;50.28;27.67;;;1.90;99.90;;;;;;6270836;28;20056;-80
2023/01/26 08:21:56;;;;;;;48.85;24.27;;;1.90;99.90;;;;;;6274783;28;20041;-81
2023/01/26 08:24:58;;;;;;;46.60;21.75;;;1.90;99.90;;;;;;6272914;28;20178;-79
2023/01/26 08:28:02;;;;;;;53.00;22.38;;;1.90;99.90;;;;;;6272378;28;20422;-80
2023/01/26 08:31:05;;;;;;;45.28;20.80;;;1.90;99.90;;;;;;6272435;28;20503;-80
2023/01/26 08:34:06;;;;;;;38.90;19.10;;;1.90;99.90;;;;;;6272135;28;20056;-79
2023/01/26 08:37:08;;;;;;;37.80;18.60;;;1.90;99.90;;;;;;6271756;28;20052;-80
2023/01/26 08:40:11;;;;;;;38.40;18.50;;;1.90;99.90;;;;;;6271808;28;20049;-79
2023/01/26 08:43:14;;;;;;;41.97;18.98;;;1.90;99.90;;;;;;6274258;28;20592;-80
2023/01/26 08:46:15;;;;;;;37.35;18.85;;;1.90;99.90;;;;;;6275849;28;20048;-80
2023/01/26 08:49:17;;;;;;;35.28;17.23;;;1.90;99.90;;;;;;6273284;28;20053;-80
2023/01/26 08:52:20;;;;;;;34.83;17.83;;;1.90;99.90;;;;;;6274358;28;20052;-80
2023/01/26 08:55:22;;;;;;;36.67;17.15;;;1.90;99.90;;;;;;6276080;28;20048;-80
2023/01/26 08:58:25;;;;;;;47.95;20.30;;;2.00;99.90;;;;;;6278594;28;20041;-80
2023/01/26 09:01:27;;;;;;;52.05;28.70;;;2.00;99.90;;;;;;6274612;28;20055;-80
2023/01/26 09:04:33;;;;;;;28.90;15.40;;;2.00;99.90;;;;;;6274332;28;20107;-79
2023/01/26 09:07:34;;;;;;;212.48;142.65;;;2.10;99.90;;;;;;6276005;28;20130;-79
2023/01/26 09:10:37;;;;;;;58.08;34.58;;;2.10;99.90;;;;;;6273979;28;20137;-79
2023/01/26 09:13:41;;;;;;;39.60;27.45;;;2.20;99.90;;;;;;6275411;28;20060;-79
2023/01/26 09:16:42;;;;;;;39.17;24.85;;;2.20;99.90;;;;;;6274774;28;20128;-80
2023/01/26 09:19:44;;;;;;;40.33;21.25;;;2.30;99.90;;;;;;6272644;28;20045;-79
2023/01/26 09:22:46;;;;;;;24.92;15.02;;;2.30;99.90;;;;;;6275208;28;20045;-79
2023/01/26 09:25:53;;;;;;;33.60;16.77;;;2.30;99.90;;;;;;6278581;28;20506;-79
2023/01/26 09:29:05;;;;;;;27.17;14.95;;;2.30;99.90;;;;;;6274954;28;20053;-79
2023/01/26 09:32:07;;;;;;;41.00;25.45;;;2.30;99.90;;;;;;6275732;28;20110;-79
2023/01/26 09:35:10;;;;;;;38.00;17.08;;;2.30;99.90;;;;;;6275929;28;20053;-80
2023/01/26 09:38:12;;;;;;;28.00;15.63;;;2.30;99.90;;;;;;6276311;28;20131;-79
2023/01/26 09:41:37;;;;;;;31.67;19.55;;;2.20;99.90;;;;;;6277110;28;20048;-78
2023/01/26 09:44:48;;;;;;;25.77;16.10;;;2.20;99.90;;;;;;6278071;28;20080;-77
2023/01/26 09:48:11;;;;;;;28.70;15.73;;;2.20;99.90;;;;;;6277233;28;20052;-78
2023/01/26 09:51:22;;;;;;;35.35;18.52;;;2.30;99.90;;;;;;6277044;28;20425;-79
2023/01/26 09:54:30;;;;;;;27.48;15.40;;;2.30;99.90;;;;;;6275847;28;20059;-79
2023/01/26 09:57:38;;;;;;;21.75;13.73;;;2.30;99.90;;;;;;6276404;28;20049;-79
2023/01/26 10:00:45;;;;;;;27.67;15.48;;;2.30;99.90;;;;;;6283129;28;20537;-79
2023/01/26 10:03:50;;;;;;;;;;;2.30;99.90;;;;;;6278261;28;20041;-80
2023/01/26 10:06:53;;;;;;;22.70;12.73;;;2.30;99.90;;;;;;6275727;28;19921;-78
2023/01/26 10:09:55;;;;;;;25.50;15.13;;;2.30;99.90;;;;;;6275345;28;20053;-80
2023/01/26 10:12:58;;;;;;;29.85;15.57;;;2.30;99.90;;;;;;6275812;28;20521;-79
2023/01/26 10:16:06;;;;;;;20.60;11.38;;;2.30;99.90;;;;;;6276661;28;20416;-78
2023/01/26 10:19:15;;;;;;;26.05;16.33;;;2.30;99.90;;;;;;6273214;28;20410;-79
2023/01/26 10:22:22;;;;;;;28.45;15.35;;;2.30;99.90;;;;;;6274459;28;20049;-78
2023/01/26 10:25:30;;;;;;;25.63;14.52;;;2.30;99.90;;;;;;6274126;28;20502;-79
2023/01/26 10:28:34;;;;;;;33.50;16.25;;;2.30;99.90;;;;;;6275041;28;20055;-79
2023/01/26 10:31:37;;;;;;;22.75;12.40;;;2.30;99.90;;;;;;6275478;28;20053;-79
2023/01/26 10:39:18;;;;;;;25.13;16.00;;;2.30;99.90;;;;;;6229064;28;20057;-79
2023/01/26 10:47:21;;;;;;;;;;;;;;;;;;;;;
2023/01/26 11:03:36;;;;;;;22.90;15.25;;;2.20;99.90;;;;;;6121499;28;20066;-80
2023/01/26 11:07:18;;;;;;;26.40;14.68;;;2.20;99.90;;;;;;6217976;28;20132;-80
2023/01/26 11:11:46;;;;;;;;;;;;;;;;;;;;;
2023/01/26 11:27:31;;;;;;;19.95;14.18;;;2.30;99.90;;;;;;6116763;29;20094;-79
2023/01/26 11:31:31;;;;;;;16.30;9.55;;;2.40;99.90;;;;;;6175820;28;20141;-79
2023/01/26 11:50:54;;;;;;;18.17;10.48;;;2.40;99.90;;;;;;6122078;29;20107;-80
2023/01/26 11:58:19;;;;;;;11.75;8.27;;;2.40;99.90;;;;;;6148744;28;20059;-80
2023/01/26 12:02:29;;;;;;;12.43;7.72;;;2.30;99.90;;;;;;6230831;28;20101;-80
2023/01/26 12:05:44;;;;;;;13.80;8.07;;;2.30;99.90;;;;;;6194737;28;20188;-80
2023/01/26 12:08:51;;;;;;;13.30;8.20;;;2.20;99.90;;;;;;6250847;28;20053;-80
2023/01/26 12:12:28;;;;;;;;;;;;;;;;;;;;;
2023/01/26 12:19:48;;;;;;;23.38;12.38;;;2.20;99.90;;;;;;6227505;28;20529;-80
2023/01/26 12:23:02;;;;;;;74.90;37.33;;;2.20;99.90;;;;;;6250838;28;20041;-80
2023/01/26 12:26:09;;;;;;;25.48;18.77;;;2.20;99.90;;;;;;6251054;28;20089;-79
2023/01/26 12:29:16;;;;;;;17.02;9.40;;;2.20;99.90;;;;;;6255181;28;20052;-80
2023/01/26 12:32:18;;;;;;;19.53;12.90;;;2.10;99.90;;;;;;6257212;28;20124;-80
2023/01/26 12:35:35;;;;;;;39.42;20.48;;;2.10;99.90;;;;;;6231840;28;20046;-79
2023/01/26 12:38:49;;;;;;;19.25;12.02;;;2.10;99.90;;;;;;6228270;28;20054;-79
2023/01/26 12:42:06;;;;;;;20.92;13.05;;;2.10;99.90;;;;;;6229812;28;20053;-79
2023/01/26 12:45:15;;;;;;;27.80;18.17;;;2.20;99.90;;;;;;6230858;28;20046;-81
2023/01/26 12:48:21;;;;;;;13.60;9.65;;;2.20;99.90;;;;;;6228920;28;20045;-80
2023/01/26 12:51:29;;;;;;;11.48;7.75;;;2.20;99.90;;;;;;6224373;28;20518;-80
2023/01/26 12:54:39;;;;;;;15.50;11.27;;;2.30;99.90;;;;;;6224852;28;20056;-80
2023/01/26 12:57:48;;;;;;;18.27;10.60;;;2.30;99.90;;;;;;6224121;28;20049;-80
2023/01/26 13:00:59;;;;;;;11.68;9.10;;;2.30;99.90;;;;;;6223360;28;20045;-80
2023/01/26 13:04:06;;;;;;;11.23;9.07;;;2.30;99.90;;;;;;6223620;28;20046;-80
2023/01/26 13:07:27;;;;;;;15.47;11.77;;;2.40;99.90;;;;;;6232716;28;20053;-81
2023/01/26 13:10:44;;;;;;;9.38;7.95;;;2.50;99.90;;;;;;6223533;28;20423;-80
2023/01/26 13:13:54;;;;;;;11.43;9.00;;;2.50;99.90;;;;;;6227719;28;20050;-79
2023/01/26 13:16:57;;;;;;;10.38;7.50;;;2.50;99.90;;;;;;6226411;28;20051;-79
2023/01/26 13:19:59;;;;;;;14.18;7.35;;;2.60;99.90;;;;;;6222868;28;20049;-79
2023/01/26 13:23:01;;;;;;;9.77;7.43;;;2.60;99.90;;;;;;6224380;28;20049;-79
2023/01/26 13:26:20;;;;;;;12.82;7.60;;;2.60;99.90;;;;;;6224423;28;20050;-78
2023/01/26 13:29:31;;;;;;;14.25;7.55;;;2.60;99.90;;;;;;6223455;28;20049;-79
2023/01/26 13:33:01;;;;;;;14.07;8.25;;;2.60;99.90;;;;;;6224957;28;20045;-79
2023/01/26 13:36:05;;;;;;;9.18;5.68;;;2.70;99.90;;;;;;6230823;28;20053;-79
2023/01/26 13:39:13;;;;;;;9.48;6.40;;;2.70;99.90;;;;;;6222940;28;20128;-80
2023/01/26 13:42:20;;;;;;;;;;;2.60;99.90;;;;;;6224523;28;20049;-80
2023/01/26 13:45:29;;;;;;;10.07;7.00;;;2.70;99.90;;;;;;6226393;28;19932;-79
2023/01/26 13:48:43;;;;;;;14.95;9.15;;;2.70;99.90;;;;;;6247450;28;20046;-80
2023/01/26 13:51:45;;;;;;;11.57;8.95;;;2.60;99.90;;;;;;6247792;28;20100;-80
2023/01/26 13:54:49;;;;;;;9.75;8.70;;;2.60;99.90;;;;;;6249121;28;20062;-80
2023/01/26 13:58:10;;;;;;;11.40;8.25;;;2.60;99.90;;;;;;6245281;28;20050;-80
2023/01/26 14:01:15;;;;;;;15.80;9.77;;;2.60;99.90;;;;;;6223471;28;20053;-80
2023/01/26 14:04:19;;;;;;;13.57;9.68;;;2.70;99.90;;;;;;6230944;28;20396;-79
2023/01/26 14:07:25;;;;;;;11.57;8.65;;;2.70;99.90;;;;;;6241477;28;20534;-78
2023/01/26 14:10:27;;;;;;;19.45;12.00;;;2.70;99.90;;;;;;6228579;28;20061;-79
2023/01/26 14:13:33;;;;;;;28.45;13.45;;;2.70;99.90;;;;;;6243363;28;20046;-79
2023/01/26 14:16:36;;;;;;;13.10;9.40;;;2.70;99.90;;;;;;6250168;28;20111;-79
2023/01/26 14:19:41;;;;;;;11.05;9.20;;;2.60;99.90;;;;;;6249277;28;20530;-78
2023/01/26 14:22:43;;;;;;;8.90;7.35;;;2.60;99.90;;;;;;6249987;28;20121;-78
2023/01/26 14:25:48;;;;;;;11.70;8.70;;;2.60;99.90;;;;;;6250559;28;20107;-79
2023/01/26 14:28:51;;;;;;;8.48;7.07;;;2.60;99.90;;;;;;6249028;28;20048;-79
2023/01/26 14:31:55;;;;;;;10.82;7.20;;;2.60;99.90;;;;;;6250314;28;20046;-79
2023/01/26 14:34:59;;;;;;;9.65;7.28;;;2.60;99.90;;;;;;6242688;28;20052;-80
2023/01/26 14:38:15;;;;;;;10.25;8.23;;;2.60;99.90;;;;;;6251506;28;20053;-78
2023/01/26 14:41:22;;;;;;;12.60;9.05;;;2.60;99.90;;;;;;6251160;28;20054;-78
2023/01/26 14:44:25;;;;;;;9.18;7.28;;;2.60;99.90;;;;;;6250953;28;20045;-79
2023/01/26 14:47:31;;;;;;;9.85;8.23;;;2.50;99.90;;;;;;6250571;28;20049;-80
2023/01/26 14:50:34;;;;;;;8.23;6.70;;;2.50;99.90;;;;;;6252013;28;20053;-79
2023/01/26 14:53:36;;;;;;;94.82;49.40;;;2.50;99.90;;;;;;6248010;28;20418;-78
2023/01/26 14:56:40;;;;;;;29.23;24.10;;;2.50;99.90;;;;;;6234715;28;20046;-78
2023/01/26 14:59:43;;;;;;;21.35;17.15;;;2.50;99.90;;;;;;6229239;28;20045;-77
2023/01/26 15:02:48;;;;;;;15.93;13.38;;;2.40;99.90;;;;;;6239414;28;20056;-78
2023/01/26 15:06:05;;;;;;;15.90;11.50;;;2.40;99.90;;;;;;6245870;28;20655;-78
2023/01/26 15:09:21;;;;;;;14.32;12.15;;;2.40;99.90;;;;;;6249541;28;20049;-79
2023/01/26 15:12:23;;;;;;;17.17;12.60;;;2.30;99.90;;;;;;6227108;28;20053;-79
2023/01/26 15:15:29;;;;;;;16.13;10.73;;;2.30;99.90;;;;;;6224550;28;20049;-79
2023/01/26 15:18:31;;;;;;;13.55;9.73;;;2.30;99.90;;;;;;6224106;28;20046;-79
2023/01/26 15:21:38;;;;;;;13.80;10.55;;;2.20;99.90;;;;;;6224781;28;20080;-79
2023/01/26 15:24:40;;;;;;;15.88;9.93;;;2.20;99.90;;;;;;6228953;28;20050;-80
2023/01/26 15:27:42;;;;;;;16.13;9.77;;;2.20;99.90;;;;;;6233334;28;20057;-79
2023/01/26 15:30:50;;;;;;;16.60;11.25;;;2.10;99.90;;;;;;6231707;28;20055;-79
2023/01/26 15:33:52;;;;;;;;;;;2.10;99.90;;;;;;6234863;28;20573;-79
2023/01/26 15:36:56;;;;;;;16.35;10.73;;;2.00;99.90;;;;;;6244987;28;19921;-78
2023/01/26 15:39:58;;;;;;;17.50;11.75;;;2.00;99.90;;;;;;6252696;28;20064;-79
2023/01/26 15:43:11;;;;;;;32.83;18.83;;;1.90;99.90;;;;;;6253298;28;20045;-78
2023/01/26 15:46:14;;;;;;;36.20;20.77;;;1.90;99.90;;;;;;6254037;28;20053;-80
2023/01/26 15:49:18;;;;;;;19.13;14.43;;;1.90;99.90;;;;;;6251016;28;20057;-80
2023/01/26 15:52:22;;;;;;;17.42;13.00;;;1.90;99.90;;;;;;6251690;28;20041;-78
2023/01/26 15:55:27;;;;;;;14.73;11.40;;;1.80;99.90;;;;;;6250341;28;20111;-79
2023/01/26 15:58:30;;;;;;;20.70;15.10;;;1.80;99.90;;;;;;6249940;28;20597;-79
2023/01/26 16:01:33;;;;;;;22.83;15.30;;;1.80;99.90;;;;;;6252420;28;20499;-78
2023/01/26 16:04:35;;;;;;;19.48;12.15;;;1.80;99.90;;;;;;6240723;28;20042;-78
2023/01/26 16:07:36;;;;;;;29.92;16.40;;;1.70;99.90;;;;;;6247717;28;20445;-80
2023/01/26 16:10:38;;;;;;;19.55;13.80;;;1.70;99.90;;;;;;6251994;28;20060;-79
2023/01/26 16:13:42;;;;;;;25.77;14.18;;;1.80;99.90;;;;;;6227267;28;20038;-80
2023/01/26 16:16:45;;;;;;;23.15;14.98;;;1.90;99.90;;;;;;6231222;28;20144;-81
2023/01/26 16:19:47;;;;;;;31.10;16.38;;;1.80;99.90;;;;;;6231898;28;20056;-79
2023/01/26 16:22:49;;;;;;;20.23;13.30;;;1.80;99.90;;;;;;6239046;28;20046;-81
2023/01/26 16:25:51;;;;;;;21.00;13.85;;;1.70;99.90;;;;;;6229876;28;20510;-81
2023/01/26 16:28:53;;;;;;;20.85;12.60;;;1.70;99.90;;;;;;6227905;28;20423;-80
2023/01/26 16:31:56;;;;;;;18.77;12.85;;;1.70;99.90;;;;;;6228369;28;20053;-80
2023/01/26 16:34:58;;;;;;;22.15;13.38;;;1.70;99.90;;;;;;6231604;28;20536;-80
2023/01/26 16:37:59;;;;;;;26.90;13.70;;;1.70;99.90;;;;;;6224464;28;20054;-81
2023/01/26 16:41:02;;;;;;;35.83;22.45;;;1.60;99.90;;;;;;6223480;28;20052;-81
2023/01/26 16:44:12;;;;;;;60.35;38.70;;;1.70;99.90;;;;;;6224588;28;20057;-80
2023/01/26 16:47:15;;;;;;;46.78;31.33;;;1.70;99.90;;;;;;6227042;28;20052;-78
2023/01/26 16:50:17;;;;;;;31.65;21.05;;;1.60;99.90;;;;;;6223467;28;20423;-80
2023/01/26 16:53:23;;;;;;;26.00;16.52;;;1.60;99.90;;;;;;6224065;28;20046;-79
2023/01/26 16:56:25;;;;;;;21.73;14.35;;;1.60;99.90;;;;;;6224571;28;20045;-79
2023/01/26 16:59:26;;;;;;;20.77;13.35;;;1.60;99.90;;;;;;6223210;28;20056;-81
2023/01/26 17:02:38;;;;;;;26.83;14.05;;;1.60;99.90;;;;;;6224506;28;20057;-79
2023/01/26 17:05:40;;;;;;;26.27;14.93;;;1.50;99.90;;;;;;6235893;28;20060;-79
2023/01/26 17:08:42;;;;;;;19.50;13.93;;;1.50;99.90;;;;;;6249230;28;20056;-80
2023/01/26 17:11:44;;;;;;;27.90;17.00;;;1.50;99.90;;;;;;6249481;28;20052;-79
2023/01/26 17:14:45;;;;;;;22.35;14.48;;;1.50;99.90;;;;;;6227403;28;20593;-79
2023/01/26 17:17:50;;;;;;;24.27;13.55;;;1.50;99.90;;;;;;6227714;28;20064;-80
2023/01/26 17:20:52;;;;;;;22.40;12.85;;;1.40;99.90;;;;;;6224121;28;20064;-80
2023/01/26 17:23:55;;;;;;;19.00;13.13;;;1.50;99.90;;;;;;6225681;28;20709;-80
2023/01/26 17:26:57;;;;;;;23.42;14.70;;;1.50;99.90;;;;;;6225068;28;20045;-79
2023/01/26 17:29:59;;;;;;;22.63;14.85;;;1.40;99.90;;;;;;6224702;28;20054;-80
2023/01/26 17:33:04;;;;;;;28.38;15.73;;;1.50;99.90;;;;;;6223961;28;20049;-78
2023/01/26 17:36:07;;;;;;;24.33;14.85;;;1.50;99.90;;;;;;6232097;28;20129;-81
2023/01/26 17:39:11;;;;;;;25.00;14.00;;;1.50;99.90;;;;;;6223509;28;20084;-80
2023/01/26 17:42:12;;;;;;;25.67;11.15;;;1.50;99.90;;;;;;6224914;28;20046;-80
2023/01/26 17:45:14;;;;;;;20.77;12.27;;;1.50;99.90;;;;;;6227417;28;20042;-80
2023/01/26 17:48:17;;;;;;;21.92;14.38;;;1.50;99.90;;;;;;6227556;28;20046;-80
2023/01/26 17:51:21;;;;;;;20.38;12.93;;;1.50;99.90;;;;;;6227477;28;20050;-81
2023/01/26 17:54:24;;;;;;;22.67;13.75;;;1.60;99.90;;;;;;6229619;28;20041;-79
2023/01/26 17:57:26;;;;;;;26.02;14.77;;;1.50;99.90;;;;;;6249519;28;20573;-81
2023/01/26 18:00:28;;;;;;;20.63;14.07;;;1.50;99.90;;;;;;6253854;28;20132;-80
2023/01/26 18:03:31;;;;;;;24.13;13.75;;;1.60;99.90;;;;;;6240482;28;20065;-81